sensor_id;sensor_type;location;lat;lon;timestamp;P1;durP1;ratioP1;P2;durP2;ratioP2
49123;SDS011;48506;48.202;16.274;2023-03-13T00:01:22;6.57;;;2.95;;
49123;SDS011;48506;48.202;16.274;2023-03-13T00:03:50;7.07;;;3.65;;
49123;SDS011;48506;48.202;16.274;2023-03-13T00:06:19;4.25;;;3.60;;
49123;SDS011;48506;48.202;16.274;2023-03-13T00:08:47;7.50;;;3.20;;
49123;SDS011;48506;48.202;16.274;2023-03-13T00:11:13;5.97;;;3.30;;
49123;SDS011;48506;48.202;16.274;2023-03-13T00:13:40;7.65;;;4.25;;
49123;SDS011;48506;48.202;16.274;2023-03-13T00:16:09;7.00;;;4.47;;
49123;SDS011;48506;48.202;16.274;2023-03-13T00:18:36;6.95;;;3.90;;
49123;SDS011;48506;48.202;16.274;2023-03-13T00:21:04;6.65;;;3.80;;
49123;SDS011;48506;48.202;16.274;2023-03-13T00:23:32;9.90;;;4.65;;
49123;SDS011;48506;48.202;16.274;2023-03-13T00:25:59;7.80;;;4.43;;
49123;SDS011;48506;48.202;16.274;2023-03-13T00:28:33;7.53;;;4.82;;
49123;SDS011;48506;48.202;16.274;2023-03-13T00:31:03;5.65;;;4.00;;
49123;SDS011;48506;48.202;16.274;2023-03-13T00:33:30;6.93;;;2.90;;
49123;SDS011;48506;48.202;16.274;2023-03-13T00:36:02;5.07;;;3.80;;
49123;SDS011;48506;48.202;16.274;2023-03-13T00:38:30;6.45;;;4.07;;
49123;SDS011;48506;48.202;16.274;2023-03-13T00:40:58;6.50;;;3.75;;
49123;SDS011;48506;48.202;16.274;2023-03-13T00:43:31;6.28;;;4.50;;
49123;SDS011;48506;48.202;16.274;2023-03-13T00:45:58;8.25;;;5.00;;
49123;SDS011;48506;48.202;16.274;2023-03-13T00:48:24;8.45;;;4.82;;
49123;SDS011;48506;48.202;16.274;2023-03-13T00:50:51;9.15;;;5.43;;
49123;SDS011;48506;48.202;16.274;2023-03-13T00:53:17;9.02;;;5.50;;
49123;SDS011;48506;48.202;16.274;2023-03-13T00:55:59;9.05;;;5.38;;
49123;SDS011;48506;48.202;16.274;2023-03-13T00:58:27;8.90;;;5.50;;
49123;SDS011;48506;48.202;16.274;2023-03-13T01:00:55;12.75;;;5.57;;
49123;SDS011;48506;48.202;16.274;2023-03-13T01:03:21;7.20;;;4.28;;
49123;SDS011;48506;48.202;16.274;2023-03-13T01:05:58;7.90;;;5.32;;
49123;SDS011;48506;48.202;16.274;2023-03-13T01:08:26;10.98;;;5.30;;
49123;SDS011;48506;48.202;16.274;2023-03-13T01:11:03;11.13;;;4.57;;
49123;SDS011;48506;48.202;16.274;2023-03-13T01:13:34;7.95;;;4.05;;
49123;SDS011;48506;48.202;16.274;2023-03-13T01:16:01;13.23;;;5.93;;
49123;SDS011;48506;48.202;16.274;2023-03-13T01:18:28;15.02;;;5.13;;
49123;SDS011;48506;48.202;16.274;2023-03-13T01:20:54;9.73;;;6.28;;
49123;SDS011;48506;48.202;16.274;2023-03-13T01:23:20;10.05;;;4.65;;
49123;SDS011;48506;48.202;16.274;2023-03-13T01:25:46;9.63;;;5.07;;
49123;SDS011;48506;48.202;16.274;2023-03-13T01:28:12;10.70;;;5.57;;
49123;SDS011;48506;48.202;16.274;2023-03-13T01:30:38;10.90;;;5.07;;
49123;SDS011;48506;48.202;16.274;2023-03-13T01:33:04;7.00;;;4.85;;
49123;SDS011;48506;48.202;16.274;2023-03-13T01:35:30;9.55;;;4.10;;
49123;SDS011;48506;48.202;16.274;2023-03-13T01:37:56;10.27;;;4.95;;
49123;SDS011;48506;48.202;16.274;2023-03-13T01:40:22;8.63;;;5.53;;
49123;SDS011;48506;48.202;16.274;2023-03-13T01:42:52;10.05;;;4.13;;
49123;SDS011;48506;48.202;16.274;2023-03-13T01:48:14;8.52;;;4.35;;
49123;SDS011;48506;48.202;16.274;2023-03-13T01:50:40;8.00;;;3.63;;
49123;SDS011;48506;48.202;16.274;2023-03-13T01:53:06;6.90;;;4.30;;
49123;SDS011;48506;48.202;16.274;2023-03-13T01:55:32;5.82;;;3.75;;
49123;SDS011;48506;48.202;16.274;2023-03-13T01:57:59;6.95;;;3.90;;
49123;SDS011;48506;48.202;16.274;2023-03-13T02:00:26;10.50;;;4.47;;
49123;SDS011;48506;48.202;16.274;2023-03-13T02:02:56;6.68;;;3.90;;
49123;SDS011;48506;48.202;16.274;2023-03-13T02:05:24;7.30;;;4.15;;
49123;SDS011;48506;48.202;16.274;2023-03-13T02:07:56;4.88;;;3.67;;
49123;SDS011;48506;48.202;16.274;2023-03-13T02:10:47;8.23;;;3.92;;
49123;SDS011;48506;48.202;16.274;2023-03-13T02:13:25;8.85;;;3.95;;
49123;SDS011;48506;48.202;16.274;2023-03-13T02:15:52;9.25;;;4.25;;
49123;SDS011;48506;48.202;16.274;2023-03-13T02:18:19;5.85;;;4.13;;
49123;SDS011;48506;48.202;16.274;2023-03-13T02:20:45;5.88;;;3.67;;
49123;SDS011;48506;48.202;16.274;2023-03-13T02:23:14;8.05;;;3.92;;
49123;SDS011;48506;48.202;16.274;2023-03-13T02:25:47;5.07;;;3.58;;
49123;SDS011;48506;48.202;16.274;2023-03-13T02:28:19;9.00;;;4.15;;
49123;SDS011;48506;48.202;16.274;2023-03-13T02:30:59;6.63;;;3.92;;
49123;SDS011;48506;48.202;16.274;2023-03-13T02:33:27;6.18;;;4.40;;
49123;SDS011;48506;48.202;16.274;2023-03-13T02:35:55;4.35;;;3.25;;
49123;SDS011;48506;48.202;16.274;2023-03-13T02:38:24;6.57;;;3.90;;
49123;SDS011;48506;48.202;16.274;2023-03-13T02:40:53;5.07;;;3.60;;
49123;SDS011;48506;48.202;16.274;2023-03-13T02:43:25;7.43;;;4.28;;
49123;SDS011;48506;48.202;16.274;2023-03-13T02:46:10;5.50;;;3.33;;
49123;SDS011;48506;48.202;16.274;2023-03-13T02:48:39;14.63;;;4.47;;
49123;SDS011;48506;48.202;16.274;2023-03-13T02:51:09;6.38;;;3.53;;
49123;SDS011;48506;48.202;16.274;2023-03-13T02:53:41;7.90;;;4.22;;
49123;SDS011;48506;48.202;16.274;2023-03-13T02:56:09;9.23;;;4.07;;
49123;SDS011;48506;48.202;16.274;2023-03-13T02:58:39;7.00;;;3.33;;
49123;SDS011;48506;48.202;16.274;2023-03-13T03:01:06;8.73;;;4.18;;
49123;SDS011;48506;48.202;16.274;2023-03-13T03:03:33;6.50;;;4.38;;
49123;SDS011;48506;48.202;16.274;2023-03-13T03:06:01;7.13;;;4.28;;
49123;SDS011;48506;48.202;16.274;2023-03-13T03:08:29;8.52;;;4.65;;
49123;SDS011;48506;48.202;16.274;2023-03-13T03:10:55;9.05;;;4.35;;
49123;SDS011;48506;48.202;16.274;2023-03-13T03:13:22;5.97;;;3.67;;
49123;SDS011;48506;48.202;16.274;2023-03-13T03:15:48;7.00;;;3.97;;
49123;SDS011;48506;48.202;16.274;2023-03-13T03:18:13;6.05;;;3.50;;
49123;SDS011;48506;48.202;16.274;2023-03-13T03:20:40;7.57;;;3.88;;
49123;SDS011;48506;48.202;16.274;2023-03-13T03:23:05;6.25;;;3.50;;
49123;SDS011;48506;48.202;16.274;2023-03-13T03:25:31;8.30;;;4.05;;
49123;SDS011;48506;48.202;16.274;2023-03-13T03:27:57;7.18;;;3.20;;
49123;SDS011;48506;48.202;16.274;2023-03-13T03:30:23;5.80;;;3.33;;
49123;SDS011;48506;48.202;16.274;2023-03-13T03:32:49;6.45;;;3.20;;
49123;SDS011;48506;48.202;16.274;2023-03-13T03:35:15;4.85;;;2.30;;
49123;SDS011;48506;48.202;16.274;2023-03-13T03:37:41;7.38;;;2.47;;
49123;SDS011;48506;48.202;16.274;2023-03-13T03:40:07;3.65;;;1.77;;
49123;SDS011;48506;48.202;16.274;2023-03-13T03:42:35;5.15;;;2.28;;
49123;SDS011;48506;48.202;16.274;2023-03-13T03:45:04;2.97;;;1.40;;
49123;SDS011;48506;48.202;16.274;2023-03-13T03:47:30;2.00;;;1.73;;
49123;SDS011;48506;48.202;16.274;2023-03-13T03:49:56;2.30;;;1.45;;
49123;SDS011;48506;48.202;16.274;2023-03-13T03:52:22;8.02;;;3.13;;
49123;SDS011;48506;48.202;16.274;2023-03-13T03:54:48;1.92;;;1.50;;
49123;SDS011;48506;48.202;16.274;2023-03-13T03:57:13;2.95;;;1.58;;
49123;SDS011;48506;48.202;16.274;2023-03-13T03:59:39;3.00;;;1.48;;
49123;SDS011;48506;48.202;16.274;2023-03-13T04:02:05;4.22;;;1.52;;
49123;SDS011;48506;48.202;16.274;2023-03-13T04:04:31;6.45;;;2.08;;
49123;SDS011;48506;48.202;16.274;2023-03-13T04:06:57;2.53;;;1.55;;
49123;SDS011;48506;48.202;16.274;2023-03-13T04:09:23;3.90;;;1.80;;
49123;SDS011;48506;48.202;16.274;2023-03-13T04:11:49;6.38;;;3.30;;
49123;SDS011;48506;48.202;16.274;2023-03-13T04:14:15;5.57;;;2.10;;
49123;SDS011;48506;48.202;16.274;2023-03-13T04:16:41;7.00;;;2.08;;
49123;SDS011;48506;48.202;16.274;2023-03-13T04:19:07;2.85;;;1.88;;
49123;SDS011;48506;48.202;16.274;2023-03-13T04:21:33;3.28;;;2.22;;
49123;SDS011;48506;48.202;16.274;2023-03-13T04:23:59;5.25;;;1.95;;
49123;SDS011;48506;48.202;16.274;2023-03-13T04:26:24;2.40;;;1.52;;
49123;SDS011;48506;48.202;16.274;2023-03-13T04:28:50;5.35;;;1.80;;
49123;SDS011;48506;48.202;16.274;2023-03-13T04:31:16;3.88;;;2.17;;
49123;SDS011;48506;48.202;16.274;2023-03-13T04:33:42;3.83;;;2.10;;
49123;SDS011;48506;48.202;16.274;2023-03-13T04:36:08;3.25;;;1.98;;
49123;SDS011;48506;48.202;16.274;2023-03-13T04:38:34;4.30;;;1.83;;
49123;SDS011;48506;48.202;16.274;2023-03-13T04:41:00;10.63;;;2.25;;
49123;SDS011;48506;48.202;16.274;2023-03-13T04:43:26;3.75;;;1.90;;
49123;SDS011;48506;48.202;16.274;2023-03-13T04:45:52;3.75;;;2.00;;
49123;SDS011;48506;48.202;16.274;2023-03-13T04:48:19;5.45;;;2.00;;
49123;SDS011;48506;48.202;16.274;2023-03-13T04:50:46;5.10;;;1.98;;
49123;SDS011;48506;48.202;16.274;2023-03-13T04:53:13;3.45;;;1.85;;
49123;SDS011;48506;48.202;16.274;2023-03-13T04:55:38;4.47;;;1.90;;
49123;SDS011;48506;48.202;16.274;2023-03-13T04:58:05;6.28;;;2.10;;
49123;SDS011;48506;48.202;16.274;2023-03-13T05:00:31;9.23;;;2.75;;
49123;SDS011;48506;48.202;16.274;2023-03-13T05:02:57;3.78;;;1.75;;
49123;SDS011;48506;48.202;16.274;2023-03-13T05:05:22;3.92;;;1.80;;
49123;SDS011;48506;48.202;16.274;2023-03-13T05:07:48;3.47;;;1.85;;
49123;SDS011;48506;48.202;16.274;2023-03-13T05:10:14;5.63;;;2.28;;
49123;SDS011;48506;48.202;16.274;2023-03-13T05:12:40;3.55;;;1.48;;
49123;SDS011;48506;48.202;16.274;2023-03-13T05:15:07;4.85;;;1.63;;
49123;SDS011;48506;48.202;16.274;2023-03-13T05:17:33;2.30;;;1.40;;
49123;SDS011;48506;48.202;16.274;2023-03-13T05:19:59;2.60;;;1.85;;
49123;SDS011;48506;48.202;16.274;2023-03-13T05:22:25;3.70;;;1.60;;
49123;SDS011;48506;48.202;16.274;2023-03-13T05:24:51;3.05;;;1.38;;
49123;SDS011;48506;48.202;16.274;2023-03-13T05:27:17;3.53;;;2.05;;
49123;SDS011;48506;48.202;16.274;2023-03-13T05:29:43;5.68;;;1.50;;
49123;SDS011;48506;48.202;16.274;2023-03-13T05:32:09;3.92;;;1.70;;
49123;SDS011;48506;48.202;16.274;2023-03-13T05:34:34;2.95;;;1.45;;
49123;SDS011;48506;48.202;16.274;2023-03-13T05:37:01;6.53;;;1.77;;
49123;SDS011;48506;48.202;16.274;2023-03-13T05:39:27;4.75;;;1.48;;
49123;SDS011;48506;48.202;16.274;2023-03-13T05:41:52;4.55;;;1.50;;
49123;SDS011;48506;48.202;16.274;2023-03-13T05:44:18;4.45;;;1.75;;
49123;SDS011;48506;48.202;16.274;2023-03-13T05:46:44;4.53;;;1.58;;
49123;SDS011;48506;48.202;16.274;2023-03-13T05:49:10;3.13;;;1.35;;
49123;SDS011;48506;48.202;16.274;2023-03-13T05:51:36;2.95;;;1.35;;
49123;SDS011;48506;48.202;16.274;2023-03-13T05:54:02;1.35;;;1.20;;
49123;SDS011;48506;48.202;16.274;2023-03-13T05:56:28;4.38;;;1.70;;
49123;SDS011;48506;48.202;16.274;2023-03-13T05:58:54;4.68;;;2.20;;
49123;SDS011;48506;48.202;16.274;2023-03-13T06:01:20;4.85;;;1.83;;
49123;SDS011;48506;48.202;16.274;2023-03-13T06:03:46;2.78;;;1.40;;
49123;SDS011;48506;48.202;16.274;2023-03-13T06:06:14;3.58;;;1.80;;
49123;SDS011;48506;48.202;16.274;2023-03-13T06:08:40;6.28;;;2.65;;
49123;SDS011;48506;48.202;16.274;2023-03-13T06:11:06;7.30;;;3.47;;
49123;SDS011;48506;48.202;16.274;2023-03-13T06:13:32;8.05;;;3.20;;
49123;SDS011;48506;48.202;16.274;2023-03-13T06:15:58;3.35;;;2.10;;
49123;SDS011;48506;48.202;16.274;2023-03-13T06:18:24;7.40;;;2.15;;
49123;SDS011;48506;48.202;16.274;2023-03-13T06:20:55;5.45;;;2.60;;
49123;SDS011;48506;48.202;16.274;2023-03-13T06:23:23;5.00;;;2.70;;
49123;SDS011;48506;48.202;16.274;2023-03-13T06:25:49;8.18;;;3.03;;
49123;SDS011;48506;48.202;16.274;2023-03-13T06:28:15;19.73;;;7.85;;
49123;SDS011;48506;48.202;16.274;2023-03-13T06:30:41;17.42;;;8.35;;
49123;SDS011;48506;48.202;16.274;2023-03-13T06:33:08;17.42;;;7.68;;
49123;SDS011;48506;48.202;16.274;2023-03-13T06:35:33;18.92;;;7.70;;
49123;SDS011;48506;48.202;16.274;2023-03-13T06:37:59;26.13;;;10.02;;
49123;SDS011;48506;48.202;16.274;2023-03-13T06:40:26;39.97;;;14.48;;
49123;SDS011;48506;48.202;16.274;2023-03-13T06:42:53;35.45;;;13.25;;
49123;SDS011;48506;48.202;16.274;2023-03-13T06:45:19;26.83;;;10.90;;
49123;SDS011;48506;48.202;16.274;2023-03-13T06:47:45;17.60;;;9.27;;
49123;SDS011;48506;48.202;16.274;2023-03-13T06:50:11;15.00;;;6.25;;
49123;SDS011;48506;48.202;16.274;2023-03-13T06:52:37;8.98;;;4.80;;
49123;SDS011;48506;48.202;16.274;2023-03-13T06:55:03;10.32;;;4.30;;
49123;SDS011;48506;48.202;16.274;2023-03-13T06:57:30;6.43;;;4.03;;
49123;SDS011;48506;48.202;16.274;2023-03-13T06:59:56;9.32;;;4.18;;
49123;SDS011;48506;48.202;16.274;2023-03-13T07:02:21;6.50;;;3.28;;
49123;SDS011;48506;48.202;16.274;2023-03-13T07:04:48;5.13;;;2.70;;
49123;SDS011;48506;48.202;16.274;2023-03-13T07:07:14;4.05;;;2.60;;
49123;SDS011;48506;48.202;16.274;2023-03-13T07:09:41;6.80;;;2.10;;
49123;SDS011;48506;48.202;16.274;2023-03-13T07:12:07;5.22;;;2.55;;
49123;SDS011;48506;48.202;16.274;2023-03-13T07:14:33;4.60;;;2.42;;
49123;SDS011;48506;48.202;16.274;2023-03-13T07:16:59;6.75;;;2.75;;
49123;SDS011;48506;48.202;16.274;2023-03-13T07:19:24;7.30;;;3.42;;
49123;SDS011;48506;48.202;16.274;2023-03-13T07:21:52;4.53;;;2.85;;
49123;SDS011;48506;48.202;16.274;2023-03-13T07:24:18;5.50;;;3.10;;
49123;SDS011;48506;48.202;16.274;2023-03-13T07:26:44;9.68;;;3.25;;
49123;SDS011;48506;48.202;16.274;2023-03-13T07:29:10;9.77;;;3.80;;
49123;SDS011;48506;48.202;16.274;2023-03-13T07:31:36;8.48;;;3.17;;
49123;SDS011;48506;48.202;16.274;2023-03-13T07:34:03;10.52;;;3.97;;
49123;SDS011;48506;48.202;16.274;2023-03-13T07:36:30;6.22;;;3.45;;
49123;SDS011;48506;48.202;16.274;2023-03-13T07:38:56;11.30;;;4.90;;
49123;SDS011;48506;48.202;16.274;2023-03-13T07:41:22;23.80;;;7.93;;
49123;SDS011;48506;48.202;16.274;2023-03-13T07:43:48;15.95;;;6.22;;
49123;SDS011;48506;48.202;16.274;2023-03-13T07:46:15;17.55;;;4.95;;
49123;SDS011;48506;48.202;16.274;2023-03-13T07:48:46;16.92;;;5.40;;
49123;SDS011;48506;48.202;16.274;2023-03-13T07:51:16;6.75;;;3.38;;
49123;SDS011;48506;48.202;16.274;2023-03-13T07:53:52;13.27;;;4.95;;
49123;SDS011;48506;48.202;16.274;2023-03-13T07:56:21;10.27;;;3.63;;
49123;SDS011;48506;48.202;16.274;2023-03-13T07:58:49;13.93;;;4.43;;
49123;SDS011;48506;48.202;16.274;2023-03-13T08:01:20;9.98;;;3.47;;
49123;SDS011;48506;48.202;16.274;2023-03-13T08:03:50;9.30;;;2.78;;
49123;SDS011;48506;48.202;16.274;2023-03-13T08:06:21;9.10;;;3.60;;
49123;SDS011;48506;48.202;16.274;2023-03-13T08:08:49;6.47;;;2.80;;
49123;SDS011;48506;48.202;16.274;2023-03-13T08:11:20;7.65;;;3.10;;
49123;SDS011;48506;48.202;16.274;2023-03-13T08:13:49;6.78;;;3.10;;
49123;SDS011;48506;48.202;16.274;2023-03-13T08:16:17;7.93;;;2.70;;
49123;SDS011;48506;48.202;16.274;2023-03-13T08:18:46;7.35;;;2.22;;
49123;SDS011;48506;48.202;16.274;2023-03-13T08:21:17;9.43;;;3.08;;
49123;SDS011;48506;48.202;16.274;2023-03-13T08:23:45;9.07;;;3.22;;
49123;SDS011;48506;48.202;16.274;2023-03-13T08:26:13;5.05;;;2.58;;
49123;SDS011;48506;48.202;16.274;2023-03-13T08:28:41;6.47;;;2.42;;
49123;SDS011;48506;48.202;16.274;2023-03-13T08:31:09;6.05;;;2.92;;
49123;SDS011;48506;48.202;16.274;2023-03-13T08:33:39;7.55;;;2.72;;
49123;SDS011;48506;48.202;16.274;2023-03-13T08:36:08;4.78;;;3.17;;
49123;SDS011;48506;48.202;16.274;2023-03-13T08:38:53;5.95;;;2.25;;
49123;SDS011;48506;48.202;16.274;2023-03-13T08:41:24;6.88;;;3.20;;
49123;SDS011;48506;48.202;16.274;2023-03-13T08:43:56;4.63;;;2.65;;
49123;SDS011;48506;48.202;16.274;2023-03-13T08:46:22;7.57;;;2.90;;
49123;SDS011;48506;48.202;16.274;2023-03-13T08:48:50;8.35;;;2.30;;
49123;SDS011;48506;48.202;16.274;2023-03-13T08:51:18;5.63;;;2.35;;
49123;SDS011;48506;48.202;16.274;2023-03-13T08:53:45;8.13;;;2.20;;
49123;SDS011;48506;48.202;16.274;2023-03-13T08:56:13;5.30;;;2.55;;
49123;SDS011;48506;48.202;16.274;2023-03-13T08:58:40;3.58;;;1.98;;
49123;SDS011;48506;48.202;16.274;2023-03-13T09:01:08;5.55;;;2.85;;
49123;SDS011;48506;48.202;16.274;2023-03-13T09:03:36;4.28;;;1.70;;
49123;SDS011;48506;48.202;16.274;2023-03-13T09:06:04;3.05;;;1.75;;
49123;SDS011;48506;48.202;16.274;2023-03-13T09:08:31;3.83;;;1.45;;
49123;SDS011;48506;48.202;16.274;2023-03-13T09:10:58;3.17;;;1.98;;
49123;SDS011;48506;48.202;16.274;2023-03-13T09:13:27;3.50;;;2.15;;
49123;SDS011;48506;48.202;16.274;2023-03-13T09:18:28;3.40;;;1.88;;
49123;SDS011;48506;48.202;16.274;2023-03-13T09:20:54;5.13;;;2.47;;
49123;SDS011;48506;48.202;16.274;2023-03-13T09:23:20;5.43;;;2.17;;
49123;SDS011;48506;48.202;16.274;2023-03-13T09:25:48;7.38;;;2.38;;
49123;SDS011;48506;48.202;16.274;2023-03-13T09:28:16;10.05;;;2.47;;
49123;SDS011;48506;48.202;16.274;2023-03-13T09:30:42;4.93;;;2.05;;
49123;SDS011;48506;48.202;16.274;2023-03-13T09:33:08;3.13;;;1.35;;
49123;SDS011;48506;48.202;16.274;2023-03-13T09:35:34;4.40;;;1.52;;
49123;SDS011;48506;48.202;16.274;2023-03-13T09:38:03;2.97;;;0.98;;
49123;SDS011;48506;48.202;16.274;2023-03-13T09:40:30;1.73;;;1.55;;
49123;SDS011;48506;48.202;16.274;2023-03-13T09:43:10;3.63;;;1.38;;
49123;SDS011;48506;48.202;16.274;2023-03-13T09:46:01;2.50;;;1.30;;
49123;SDS011;48506;48.202;16.274;2023-03-13T09:48:35;2.50;;;2.17;;
49123;SDS011;48506;48.202;16.274;2023-03-13T09:51:30;4.20;;;2.20;;
49123;SDS011;48506;48.202;16.274;2023-03-13T09:56:49;6.07;;;2.78;;
49123;SDS011;48506;48.202;16.274;2023-03-13T10:02:31;5.15;;;2.40;;
49123;SDS011;48506;48.202;16.274;2023-03-13T10:05:11;10.32;;;2.45;;
49123;SDS011;48506;48.202;16.274;2023-03-13T10:07:46;3.83;;;2.30;;
49123;SDS011;48506;48.202;16.274;2023-03-13T10:10:16;4.82;;;3.05;;
49123;SDS011;48506;48.202;16.274;2023-03-13T10:12:46;3.95;;;2.80;;
49123;SDS011;48506;48.202;16.274;2023-03-13T10:17:51;6.63;;;4.03;;
49123;SDS011;48506;48.202;16.274;2023-03-13T10:20:25;15.45;;;3.85;;
49123;SDS011;48506;48.202;16.274;2023-03-13T10:22:56;6.72;;;3.78;;
49123;SDS011;48506;48.202;16.274;2023-03-13T10:25:36;7.00;;;4.45;;
49123;SDS011;48506;48.202;16.274;2023-03-13T10:28:10;6.85;;;3.97;;
49123;SDS011;48506;48.202;16.274;2023-03-13T10:30:40;10.18;;;3.78;;
49123;SDS011;48506;48.202;16.274;2023-03-13T10:35:41;11.23;;;3.92;;
49123;SDS011;48506;48.202;16.274;2023-03-13T10:38:10;10.05;;;3.65;;
49123;SDS011;48506;48.202;16.274;2023-03-13T10:40:38;7.15;;;4.28;;
49123;SDS011;48506;48.202;16.274;2023-03-13T10:43:16;8.27;;;3.78;;
49123;SDS011;48506;48.202;16.274;2023-03-13T10:45:45;10.93;;;4.25;;
49123;SDS011;48506;48.202;16.274;2023-03-13T10:48:13;8.77;;;4.10;;
49123;SDS011;48506;48.202;16.274;2023-03-13T10:50:47;8.73;;;4.18;;
49123;SDS011;48506;48.202;16.274;2023-03-13T10:53:35;8.02;;;4.15;;
49123;SDS011;48506;48.202;16.274;2023-03-13T11:01:09;8.90;;;4.38;;
49123;SDS011;48506;48.202;16.274;2023-03-13T11:03:42;10.88;;;4.97;;
49123;SDS011;48506;48.202;16.274;2023-03-13T11:09:02;9.00;;;4.93;;
49123;SDS011;48506;48.202;16.274;2023-03-13T11:11:51;11.32;;;5.43;;
49123;SDS011;48506;48.202;16.274;2023-03-13T11:14:21;8.10;;;5.20;;
49123;SDS011;48506;48.202;16.274;2023-03-13T11:31:14;6.95;;;4.43;;
49123;SDS011;48506;48.202;16.274;2023-03-13T11:37:11;9.27;;;4.50;;
49123;SDS011;48506;48.202;16.274;2023-03-13T11:48:26;11.10;;;4.18;;
49123;SDS011;48506;48.202;16.274;2023-03-13T11:51:17;6.72;;;4.85;;
49123;SDS011;48506;48.202;16.274;2023-03-13T12:04:44;6.63;;;3.58;;
49123;SDS011;48506;48.202;16.274;2023-03-13T12:10:04;8.77;;;4.30;;
49123;SDS011;48506;48.202;16.274;2023-03-13T12:12:49;6.90;;;2.90;;
49123;SDS011;48506;48.202;16.274;2023-03-13T12:15:33;14.98;;;3.78;;
49123;SDS011;48506;48.202;16.274;2023-03-13T12:18:49;7.30;;;3.38;;
49123;SDS011;48506;48.202;16.274;2023-03-13T12:26:49;6.25;;;2.70;;
49123;SDS011;48506;48.202;16.274;2023-03-13T12:32:06;4.50;;;2.42;;
49123;SDS011;48506;48.202;16.274;2023-03-13T12:43:26;3.65;;;2.67;;
49123;SDS011;48506;48.202;16.274;2023-03-13T12:48:30;6.88;;;2.50;;
49123;SDS011;48506;48.202;16.274;2023-03-13T12:51:31;5.63;;;2.88;;
49123;SDS011;48506;48.202;16.274;2023-03-13T12:59:40;5.13;;;2.25;;
49123;SDS011;48506;48.202;16.274;2023-03-13T13:02:16;4.78;;;2.40;;
49123;SDS011;48506;48.202;16.274;2023-03-13T13:04:47;4.43;;;2.40;;
49123;SDS011;48506;48.202;16.274;2023-03-13T13:07:25;7.95;;;2.33;;
49123;SDS011;48506;48.202;16.274;2023-03-13T13:10:13;3.80;;;2.35;;
49123;SDS011;48506;48.202;16.274;2023-03-13T13:12:45;7.90;;;2.58;;
49123;SDS011;48506;48.202;16.274;2023-03-13T13:15:32;6.03;;;2.67;;
49123;SDS011;48506;48.202;16.274;2023-03-13T13:18:00;3.35;;;1.67;;
49123;SDS011;48506;48.202;16.274;2023-03-13T13:20:37;4.60;;;2.20;;
49123;SDS011;48506;48.202;16.274;2023-03-13T13:23:23;2.83;;;2.08;;
49123;SDS011;48506;48.202;16.274;2023-03-13T13:28:56;3.22;;;1.70;;
49123;SDS011;48506;48.202;16.274;2023-03-13T13:36:59;2.42;;;1.92;;
49123;SDS011;48506;48.202;16.274;2023-03-13T13:39:44;4.90;;;1.73;;
49123;SDS011;48506;48.202;16.274;2023-03-13T13:45:53;4.00;;;2.25;;
49123;SDS011;48506;48.202;16.274;2023-03-13T13:47:45;4.72;;;1.65;;
49123;SDS011;48506;48.202;16.274;2023-03-13T13:50:17;9.15;;;1.67;;
49123;SDS011;48506;48.202;16.274;2023-03-13T13:52:46;4.35;;;2.20;;
49123;SDS011;48506;48.202;16.274;2023-03-13T13:58:05;6.22;;;2.38;;
49123;SDS011;48506;48.202;16.274;2023-03-13T14:00:51;29.45;;;3.08;;
49123;SDS011;48506;48.202;16.274;2023-03-13T14:03:25;3.75;;;1.98;;
49123;SDS011;48506;48.202;16.274;2023-03-13T14:06:10;5.95;;;2.13;;
49123;SDS011;48506;48.202;16.274;2023-03-13T14:09:09;6.45;;;2.05;;
49123;SDS011;48506;48.202;16.274;2023-03-13T14:15:35;4.30;;;2.10;;
49123;SDS011;48506;48.202;16.274;2023-03-13T14:17:47;4.30;;;2.10;;
49123;SDS011;48506;48.202;16.274;2023-03-13T14:23:02;3.95;;;1.90;;
49123;SDS011;48506;48.202;16.274;2023-03-13T14:25:45;7.10;;;2.22;;
49123;SDS011;48506;48.202;16.274;2023-03-13T14:30:53;3.42;;;1.67;;
49123;SDS011;48506;48.202;16.274;2023-03-13T14:33:23;3.83;;;1.70;;
49123;SDS011;48506;48.202;16.274;2023-03-13T14:35:53;3.95;;;1.75;;
49123;SDS011;48506;48.202;16.274;2023-03-13T14:38:22;6.75;;;2.28;;
49123;SDS011;48506;48.202;16.274;2023-03-13T14:40:50;2.67;;;1.98;;
49123;SDS011;48506;48.202;16.274;2023-03-13T14:43:19;8.10;;;2.35;;
49123;SDS011;48506;48.202;16.274;2023-03-13T14:45:51;2.58;;;1.70;;
49123;SDS011;48506;48.202;16.274;2023-03-13T14:51:02;7.47;;;2.38;;
49123;SDS011;48506;48.202;16.274;2023-03-13T14:53:56;3.60;;;2.53;;
49123;SDS011;48506;48.202;16.274;2023-03-13T14:56:31;5.63;;;2.13;;
49123;SDS011;48506;48.202;16.274;2023-03-13T14:59:06;4.60;;;1.83;;
49123;SDS011;48506;48.202;16.274;2023-03-13T15:01:39;4.63;;;2.97;;
49123;SDS011;48506;48.202;16.274;2023-03-13T15:04:05;4.90;;;2.30;;
49123;SDS011;48506;48.202;16.274;2023-03-13T15:06:30;7.03;;;2.40;;
49123;SDS011;48506;48.202;16.274;2023-03-13T15:11:35;7.25;;;2.72;;
49123;SDS011;48506;48.202;16.274;2023-03-13T15:16:56;4.20;;;2.42;;
49123;SDS011;48506;48.202;16.274;2023-03-13T15:19:23;4.75;;;2.40;;
49123;SDS011;48506;48.202;16.274;2023-03-13T15:21:50;3.00;;;2.20;;
49123;SDS011;48506;48.202;16.274;2023-03-13T15:24:16;4.38;;;2.72;;
49123;SDS011;48506;48.202;16.274;2023-03-13T15:26:43;4.10;;;2.40;;
49123;SDS011;48506;48.202;16.274;2023-03-13T15:29:09;4.63;;;2.58;;
49123;SDS011;48506;48.202;16.274;2023-03-13T15:31:37;6.80;;;2.95;;
49123;SDS011;48506;48.202;16.274;2023-03-13T15:34:09;6.65;;;2.78;;
49123;SDS011;48506;48.202;16.274;2023-03-13T15:36:38;4.20;;;2.47;;
49123;SDS011;48506;48.202;16.274;2023-03-13T15:39:12;5.03;;;2.35;;
49123;SDS011;48506;48.202;16.274;2023-03-13T15:41:45;5.80;;;3.22;;
49123;SDS011;48506;48.202;16.274;2023-03-13T15:44:11;6.00;;;2.65;;
49123;SDS011;48506;48.202;16.274;2023-03-13T15:46:39;7.03;;;2.10;;
49123;SDS011;48506;48.202;16.274;2023-03-13T15:49:05;6.93;;;2.40;;
49123;SDS011;48506;48.202;16.274;2023-03-13T15:51:35;5.80;;;2.60;;
49123;SDS011;48506;48.202;16.274;2023-03-13T15:54:02;6.55;;;2.42;;
49123;SDS011;48506;48.202;16.274;2023-03-13T15:56:29;7.15;;;2.92;;
49123;SDS011;48506;48.202;16.274;2023-03-13T15:59:00;5.88;;;2.75;;
49123;SDS011;48506;48.202;16.274;2023-03-13T16:01:26;6.57;;;3.22;;
49123;SDS011;48506;48.202;16.274;2023-03-13T16:03:52;5.53;;;2.65;;
49123;SDS011;48506;48.202;16.274;2023-03-13T16:06:19;5.03;;;2.63;;
49123;SDS011;48506;48.202;16.274;2023-03-13T16:08:55;5.43;;;2.53;;
49123;SDS011;48506;48.202;16.274;2023-03-13T16:11:22;6.03;;;2.60;;
49123;SDS011;48506;48.202;16.274;2023-03-13T16:13:49;5.32;;;2.30;;
49123;SDS011;48506;48.202;16.274;2023-03-13T16:16:25;5.43;;;2.47;;
49123;SDS011;48506;48.202;16.274;2023-03-13T16:18:53;4.15;;;2.42;;
49123;SDS011;48506;48.202;16.274;2023-03-13T16:21:23;4.70;;;2.63;;
49123;SDS011;48506;48.202;16.274;2023-03-13T16:23:51;7.75;;;3.67;;
49123;SDS011;48506;48.202;16.274;2023-03-13T16:26:19;5.78;;;2.70;;
49123;SDS011;48506;48.202;16.274;2023-03-13T16:28:51;3.20;;;2.30;;
49123;SDS011;48506;48.202;16.274;2023-03-13T16:31:26;4.50;;;2.92;;
49123;SDS011;48506;48.202;16.274;2023-03-13T16:33:54;7.85;;;3.42;;
49123;SDS011;48506;48.202;16.274;2023-03-13T16:36:25;5.15;;;2.60;;
49123;SDS011;48506;48.202;16.274;2023-03-13T16:38:56;7.15;;;2.63;;
49123;SDS011;48506;48.202;16.274;2023-03-13T16:41:24;5.82;;;2.70;;
49123;SDS011;48506;48.202;16.274;2023-03-13T16:43:55;8.38;;;2.88;;
49123;SDS011;48506;48.202;16.274;2023-03-13T16:46:23;13.80;;;3.17;;
49123;SDS011;48506;48.202;16.274;2023-03-13T16:49:01;8.88;;;3.03;;